createdAt,value
2023-03-22T00:02:05.419Z,29.45
2023-03-22T00:04:32.834Z,29.55
2023-03-22T00:06:59.965Z,29.75
2023-03-22T00:09:27.148Z,28.17
2023-03-22T00:11:54.266Z,29.95
2023-03-22T00:14:21.360Z,28.63
2023-03-22T00:16:49.259Z,29.73
2023-03-22T00:19:17.408Z,30.33
2023-03-22T00:21:44.663Z,28.15
2023-03-22T00:24:11.803Z,29.10
2023-03-22T00:26:38.871Z,27.10
2023-03-22T00:29:06.001Z,26.90
2023-03-22T00:31:33.180Z,27.15
2023-03-22T00:34:00.300Z,28.20
2023-03-22T00:36:27.421Z,27.95
2023-03-22T00:38:54.524Z,29.60
2023-03-22T00:41:22.309Z,31.02
2023-03-22T00:43:49.897Z,28.35
2023-03-22T00:46:17.906Z,28.45
2023-03-22T00:48:45.111Z,30.23
2023-03-22T00:51:12.493Z,25.60
2023-03-22T00:53:42.594Z,26.45
2023-03-22T00:56:10.797Z,29.35
2023-03-22T00:58:37.907Z,27.65
2023-03-22T01:01:05.224Z,27.05
2023-03-22T01:03:33.220Z,29.42
2023-03-22T01:06:01.066Z,28.20
2023-03-22T01:08:33.026Z,27.98
2023-03-22T01:11:01.105Z,26.60
2023-03-22T01:13:28.844Z,26.53
2023-03-22T01:15:56.029Z,25.63
2023-03-22T01:18:23.144Z,27.15
2023-03-22T01:20:50.293Z,29.10
2023-03-22T01:23:17.405Z,29.45
2023-03-22T01:25:44.551Z,29.73
2023-03-22T01:28:11.686Z,26.05
2023-03-22T01:30:42.148Z,28.70
2023-03-22T01:33:09.518Z,30.08
2023-03-22T01:35:36.908Z,27.15
2023-03-22T01:38:04.550Z,28.52
2023-03-22T01:40:31.808Z,26.48
2023-03-22T01:42:58.918Z,24.33
2023-03-22T01:45:36.439Z,26.33
2023-03-22T01:48:22.571Z,27.98
2023-03-22T01:51:13.237Z,25.00
2023-03-22T01:53:41.466Z,26.15
2023-03-22T01:56:09.014Z,25.35
2023-03-22T01:58:37.390Z,26.50
2023-03-22T02:01:05.020Z,26.80
2023-03-22T02:03:37.812Z,27.65
2023-03-22T02:06:04.961Z,28.90
2023-03-22T02:08:32.058Z,27.58
2023-03-22T02:10:59.188Z,27.05
2023-03-22T02:13:29.204Z,27.10
2023-03-22T02:16:03.227Z,27.88
2023-03-22T02:18:39.254Z,25.02
2023-03-22T02:21:12.438Z,27.15
2023-03-22T02:23:45.663Z,27.87
2023-03-22T02:26:31.829Z,26.25
2023-03-22T02:28:58.924Z,26.13
2023-03-22T02:31:28.943Z,24.63
2023-03-22T02:34:15.677Z,25.58
2023-03-22T02:36:42.818Z,26.50
2023-03-22T02:39:28.744Z,26.25
2023-03-22T02:42:04.748Z,25.48
2023-03-22T02:44:46.811Z,24.35
2023-03-22T02:47:20.644Z,26.13
2023-03-22T02:49:50.931Z,25.17
2023-03-22T02:52:35.992Z,23.37
2023-03-22T02:55:06.278Z,26.83
2023-03-22T02:57:38.576Z,24.70
2023-03-22T03:00:11.096Z,24.23
2023-03-22T03:02:38.663Z,25.33
2023-03-22T03:05:05.895Z,26.63
2023-03-22T03:07:32.997Z,25.95
2023-03-22T03:10:00.097Z,24.50
2023-03-22T03:12:28.088Z,24.35
2023-03-22T03:14:55.555Z,23.02
2023-03-22T03:17:28.747Z,23.10
2023-03-22T03:19:55.825Z,22.85
2023-03-22T03:22:25.964Z,23.87
2023-03-22T03:24:58.265Z,24.67
2023-03-22T03:27:57.429Z,25.48
2023-03-22T03:30:32.460Z,27.02
2023-03-22T03:33:01.187Z,24.83
2023-03-22T03:35:37.625Z,27.50
2023-03-22T03:38:08.731Z,27.97
2023-03-22T03:40:37.473Z,27.45
2023-03-22T03:43:04.878Z,28.77
2023-03-22T03:45:32.096Z,29.00
2023-03-22T03:48:03.345Z,27.50
2023-03-22T03:50:30.606Z,28.83
2023-03-22T03:52:57.969Z,29.50
2023-03-22T03:55:25.178Z,25.38
2023-03-22T03:57:52.301Z,25.83
2023-03-22T04:00:19.532Z,22.65
2023-03-22T04:02:46.647Z,24.55
2023-03-22T04:05:13.933Z,24.10
2023-03-22T04:07:41.717Z,24.77
2023-03-22T04:10:08.999Z,22.58
2023-03-22T04:12:36.264Z,21.92
2023-03-22T04:15:03.349Z,23.52
2023-03-22T04:17:32.004Z,23.58
2023-03-22T04:19:59.138Z,23.02
2023-03-22T04:22:26.624Z,22.35
2023-03-22T04:24:53.850Z,24.63
2023-03-22T04:27:21.517Z,25.17
2023-03-22T04:29:48.662Z,23.75
2023-03-22T04:32:18.832Z,22.83
2023-03-22T04:34:49.332Z,24.80
2023-03-22T04:37:16.598Z,22.27
2023-03-22T04:39:43.780Z,23.95
2023-03-22T04:42:11.139Z,21.77
2023-03-22T04:44:38.277Z,22.70
2023-03-22T04:47:05.365Z,21.20
2023-03-22T04:49:32.534Z,21.40
2023-03-22T04:51:59.673Z,20.80
2023-03-22T04:54:26.863Z,20.80
2023-03-22T04:56:53.961Z,19.93
2023-03-22T04:59:21.352Z,20.15
2023-03-22T05:01:48.786Z,19.17
2023-03-22T05:04:16.001Z,19.20
2023-03-22T05:06:43.130Z,21.38
2023-03-22T05:09:10.258Z,21.25
2023-03-22T05:11:37.385Z,22.42
2023-03-22T05:14:04.704Z,21.35
2023-03-22T05:16:31.901Z,19.80
2023-03-22T05:18:59.115Z,20.10
2023-03-22T05:21:29.213Z,21.42
2023-03-22T05:23:56.839Z,21.80
2023-03-22T05:26:26.164Z,22.75
2023-03-22T05:28:56.360Z,20.85
2023-03-22T05:31:23.574Z,20.60
2023-03-22T05:33:51.008Z,21.52
2023-03-22T05:36:18.566Z,21.85
2023-03-22T05:38:46.543Z,21.70
2023-03-22T05:41:14.002Z,22.05
2023-03-22T05:43:41.158Z,21.30
2023-03-22T05:46:08.832Z,19.50
2023-03-22T05:48:36.435Z,20.10
2023-03-22T05:51:03.789Z,20.25
2023-03-22T05:53:31.858Z,20.67
2023-03-22T05:56:00.726Z,19.73
2023-03-22T05:58:28.958Z,19.67
2023-03-22T06:00:56.067Z,20.87
2023-03-22T06:03:24.185Z,21.13
2023-03-22T06:05:51.296Z,18.70
2023-03-22T06:08:18.416Z,19.20
2023-03-22T06:10:45.517Z,17.50
2023-03-22T06:13:12.639Z,18.73
2023-03-22T06:15:39.764Z,19.35
2023-03-22T06:18:06.940Z,18.35
2023-03-22T06:20:35.214Z,20.03
2023-03-22T06:23:02.475Z,19.40
2023-03-22T06:25:29.585Z,18.98
2023-03-22T06:27:56.698Z,18.65
2023-03-22T06:30:23.957Z,18.45
2023-03-22T06:32:51.039Z,18.15
2023-03-22T06:35:18.223Z,17.52
2023-03-22T06:37:45.308Z,15.52
2023-03-22T06:40:12.532Z,17.67
2023-03-22T06:42:39.687Z,16.98
2023-03-22T06:45:07.971Z,15.20
2023-03-22T06:47:35.136Z,15.30
2023-03-22T06:50:02.323Z,14.95
2023-03-22T06:52:29.419Z,14.93
2023-03-22T06:54:56.910Z,15.30
2023-03-22T06:57:24.035Z,14.18
2023-03-22T06:59:51.289Z,13.82
2023-03-22T07:02:18.365Z,15.67
2023-03-22T07:04:46.526Z,14.98
2023-03-22T07:07:13.826Z,16.17
2023-03-22T07:09:40.989Z,15.13
2023-03-22T07:12:08.113Z,14.05
2023-03-22T07:14:35.704Z,13.85
2023-03-22T07:17:02.833Z,11.77
2023-03-22T07:19:30.054Z,12.50
2023-03-22T07:21:57.155Z,11.35
2023-03-22T07:24:24.253Z,10.70
2023-03-22T07:26:51.338Z,11.07
2023-03-22T07:29:18.468Z,12.02
2023-03-22T07:31:45.800Z,12.65
2023-03-22T07:34:12.953Z,11.80
2023-03-22T07:36:49.619Z,12.23
2023-03-22T07:39:16.727Z,12.23
2023-03-22T07:41:43.812Z,11.30
2023-03-22T07:44:17.607Z,11.70
2023-03-22T07:46:45.092Z,11.50
2023-03-22T07:49:12.249Z,10.20
2023-03-22T07:51:39.423Z,9.45
2023-03-22T07:54:07.803Z,9.45
2023-03-22T07:56:35.055Z,8.77
2023-03-22T07:59:02.269Z,8.50
2023-03-22T08:01:29.529Z,8.68
2023-03-22T08:03:56.630Z,8.07
2023-03-22T08:06:23.740Z,7.82
2023-03-22T08:08:50.993Z,7.20
2023-03-22T08:11:18.139Z,6.32
2023-03-22T08:13:45.284Z,6.00
2023-03-22T08:16:12.472Z,5.70
2023-03-22T08:18:39.624Z,5.28
2023-03-22T08:21:07.078Z,5.53
2023-03-22T08:23:41.354Z,5.65
2023-03-22T08:26:09.451Z,4.68
2023-03-22T08:28:36.783Z,4.57
2023-03-22T08:31:10.128Z,5.05
2023-03-22T08:33:37.227Z,5.53
2023-03-22T08:36:05.437Z,4.63
2023-03-22T08:38:32.619Z,5.43
2023-03-22T08:40:59.744Z,4.97
2023-03-22T08:43:26.829Z,4.82
2023-03-22T08:45:53.981Z,5.15
2023-03-22T08:48:21.254Z,5.45
2023-03-22T08:50:48.422Z,5.95
2023-03-22T08:53:15.567Z,5.77
2023-03-22T08:55:44.919Z,5.95
2023-03-22T08:58:16.485Z,6.85
2023-03-22T09:00:49.006Z,7.35
2023-03-22T09:03:16.772Z,7.28
2023-03-22T09:05:44.097Z,7.30
2023-03-22T09:08:18.626Z,6.53
2023-03-22T09:10:51.181Z,6.00
2023-03-22T09:13:18.571Z,5.87
2023-03-22T09:15:45.988Z,6.00
2023-03-22T09:18:13.158Z,6.53
2023-03-22T09:20:40.646Z,5.80
2023-03-22T09:23:07.954Z,6.20
2023-03-22T09:25:35.281Z,7.13
2023-03-22T09:28:02.545Z,6.25
2023-03-22T09:30:29.688Z,6.93
2023-03-22T09:32:56.824Z,6.00
2023-03-22T09:35:24.013Z,6.10
2023-03-22T09:37:53.316Z,6.85
2023-03-22T09:40:20.840Z,6.82
2023-03-22T09:42:51.294Z,7.32
2023-03-22T09:45:25.073Z,7.97
2023-03-22T09:47:53.145Z,7.70
2023-03-22T09:50:24.078Z,8.00
2023-03-22T09:52:51.199Z,8.53
2023-03-22T09:55:19.737Z,8.07
2023-03-22T09:57:47.444Z,7.60
2023-03-22T10:00:34.426Z,8.07
2023-03-22T10:03:21.884Z,7.35
2023-03-22T10:05:50.936Z,8.10
2023-03-22T10:08:18.065Z,7.55
2023-03-22T10:10:45.252Z,6.88
2023-03-22T10:13:16.369Z,6.60
2023-03-22T10:15:50.594Z,7.10
2023-03-22T10:18:23.023Z,7.03
2023-03-22T10:20:54.039Z,7.45
2023-03-22T10:23:22.766Z,7.07
2023-03-22T10:25:49.849Z,6.57
2023-03-22T10:28:19.100Z,7.20
2023-03-22T10:30:50.848Z,6.90
2023-03-22T10:33:21.980Z,6.72
2023-03-22T10:35:49.117Z,6.40
2023-03-22T10:38:20.637Z,6.53
2023-03-22T10:40:47.738Z,6.20
2023-03-22T10:43:18.295Z,6.20
2023-03-22T10:45:45.448Z,6.28
2023-03-22T10:48:17.982Z,5.47
2023-03-22T10:50:46.339Z,5.90
2023-03-22T10:53:25.342Z,5.80
2023-03-22T10:55:52.458Z,5.40
2023-03-22T10:58:20.467Z,5.40
2023-03-22T11:00:51.943Z,5.07
2023-03-22T11:03:29.913Z,5.38
2023-03-22T11:06:16.168Z,5.03
2023-03-22T11:08:47.304Z,4.25
2023-03-22T11:11:16.043Z,4.50
2023-03-22T11:13:43.207Z,4.70
2023-03-22T11:16:10.491Z,3.83
2023-03-22T11:18:37.694Z,3.70
2023-03-22T11:21:06.285Z,4.00
2023-03-22T11:23:34.005Z,4.32
2023-03-22T11:26:06.348Z,4.30
2023-03-22T11:28:37.607Z,4.55
2023-03-22T11:31:17.484Z,4.97
2023-03-22T11:33:53.870Z,4.90
2023-03-22T11:36:20.974Z,4.78
2023-03-22T11:38:48.905Z,4.22
2023-03-22T11:41:25.820Z,4.75
2023-03-22T11:43:54.353Z,5.23
2023-03-22T11:46:21.643Z,4.97
2023-03-22T11:48:49.615Z,4.53
2023-03-22T11:51:20.721Z,4.90
2023-03-22T11:53:48.193Z,5.05
2023-03-22T11:56:19.061Z,5.20
2023-03-22T11:58:46.157Z,4.90
2023-03-22T12:01:15.240Z,5.47
2023-03-22T12:03:42.994Z,6.07
2023-03-22T12:06:36.562Z,5.32
2023-03-22T12:09:06.477Z,5.43
2023-03-22T12:11:34.967Z,5.20
2023-03-22T12:14:03.674Z,5.20
2023-03-22T12:16:33.093Z,4.17
2023-03-22T12:19:05.877Z,4.57
2023-03-22T12:21:33.741Z,3.92
2023-03-22T12:24:02.178Z,4.28
2023-03-22T12:26:29.316Z,4.20
2023-03-22T12:29:06.610Z,4.30
2023-03-22T12:31:38.420Z,4.15
2023-03-22T12:34:23.964Z,4.30
2023-03-22T12:36:51.703Z,4.30
2023-03-22T12:39:42.212Z,3.60
2023-03-22T12:42:14.285Z,3.60
2023-03-22T12:44:44.754Z,4.00
2023-03-22T12:47:13.679Z,4.22
2023-03-22T12:49:41.936Z,4.43
2023-03-22T12:52:14.079Z,4.50
2023-03-22T12:54:41.224Z,4.10
2023-03-22T12:57:08.418Z,4.17
2023-03-22T12:59:35.888Z,3.90
2023-03-22T13:02:16.662Z,4.60
2023-03-22T13:04:43.754Z,4.20
2023-03-22T13:07:16.711Z,4.47
2023-03-22T13:09:47.413Z,3.63
2023-03-22T13:12:17.396Z,3.60
2023-03-22T13:14:56.073Z,3.67
2023-03-22T13:17:23.204Z,3.40
2023-03-22T13:20:00.220Z,3.08
2023-03-22T13:22:28.368Z,3.53
2023-03-22T13:25:07.058Z,3.53
2023-03-22T13:27:35.554Z,3.10
2023-03-22T13:30:04.812Z,2.90
2023-03-22T13:32:33.459Z,3.15
2023-03-22T13:35:00.834Z,3.03
2023-03-22T13:37:54.579Z,3.05
2023-03-22T13:40:35.358Z,3.20
2023-03-22T13:43:14.602Z,2.78
2023-03-22T13:46:00.493Z,3.08
2023-03-22T13:48:30.912Z,2.80
2023-03-22T13:50:58.415Z,2.70
2023-03-22T13:53:33.730Z,2.80
2023-03-22T13:56:03.451Z,3.70
2023-03-22T13:58:36.676Z,3.13
2023-03-22T14:01:07.363Z,2.58
2023-03-22T14:03:38.988Z,3.03
2023-03-22T14:06:17.363Z,3.35
2023-03-22T14:08:44.509Z,3.00
2023-03-22T14:11:20.279Z,3.10
2023-03-22T14:13:51.892Z,2.55
2023-03-22T14:16:21.041Z,3.10
2023-03-22T14:18:48.549Z,2.87
2023-03-22T14:21:26.802Z,3.07
